sensor_id;sensor_type;location;lat;lon;timestamp;temperature;humidity
65584;DHT22;62116;43.582;1.470;2022-07-29T00:00:38;25.04;52.74
65584;DHT22;62116;43.582;1.470;2022-07-29T00:03:04;25.02;52.57
65584;DHT22;62116;43.582;1.470;2022-07-29T00:05:29;25.01;52.34
65584;DHT22;62116;43.582;1.470;2022-07-29T00:07:55;25.01;52.72
65584;DHT22;62116;43.582;1.470;2022-07-29T00:10:20;24.88;55.67
65584;DHT22;62116;43.582;1.470;2022-07-29T00:12:46;24.89;56.34
65584;DHT22;62116;43.582;1.470;2022-07-29T00:15:12;24.81;58.27
65584;DHT22;62116;43.582;1.470;2022-07-29T00:17:37;24.75;59.17
65584;DHT22;62116;43.582;1.470;2022-07-29T00:20:03;24.61;59.06
65584;DHT22;62116;43.582;1.470;2022-07-29T00:22:29;24.61;59.05
65584;DHT22;62116;43.582;1.470;2022-07-29T00:24:54;24.54;59.87
65584;DHT22;62116;43.582;1.470;2022-07-29T00:27:20;24.51;59.44
65584;DHT22;62116;43.582;1.470;2022-07-29T00:29:45;24.48;59.27
65584;DHT22;62116;43.582;1.470;2022-07-29T00:32:11;24.41;58.44
65584;DHT22;62116;43.582;1.470;2022-07-29T00:34:36;24.36;57.10
65584;DHT22;62116;43.582;1.470;2022-07-29T00:37:21;24.38;57.02
65584;DHT22;62116;43.582;1.470;2022-07-29T00:39:47;24.38;56.79
65584;DHT22;62116;43.582;1.470;2022-07-29T00:42:12;24.33;56.51
65584;DHT22;62116;43.582;1.470;2022-07-29T00:44:38;24.33;56.00
65584;DHT22;62116;43.582;1.470;2022-07-29T00:47:04;24.34;55.17
65584;DHT22;62116;43.582;1.470;2022-07-29T00:49:30;24.31;54.75
65584;DHT22;62116;43.582;1.470;2022-07-29T00:51:56;24.34;55.02
65584;DHT22;62116;43.582;1.470;2022-07-29T00:54:22;24.31;53.84
65584;DHT22;62116;43.582;1.470;2022-07-29T00:56:47;24.34;53.98
65584;DHT22;62116;43.582;1.470;2022-07-29T00:59:13;24.37;53.27
65584;DHT22;62116;43.582;1.470;2022-07-29T01:01:38;24.40;53.45
65584;DHT22;62116;43.582;1.470;2022-07-29T01:04:05;24.40;53.84
65584;DHT22;62116;43.582;1.470;2022-07-29T01:06:31;24.37;54.13
65584;DHT22;62116;43.582;1.470;2022-07-29T01:08:56;24.36;53.37
65584;DHT22;62116;43.582;1.470;2022-07-29T01:11:23;24.38;53.25
65584;DHT22;62116;43.582;1.470;2022-07-29T01:13:48;24.36;53.59
65584;DHT22;62116;43.582;1.470;2022-07-29T01:16:29;24.38;53.59
65584;DHT22;62116;43.582;1.470;2022-07-29T01:19:00;24.40;53.59
65584;DHT22;62116;43.582;1.470;2022-07-29T01:21:48;24.34;53.83
65584;DHT22;62116;43.582;1.470;2022-07-29T01:26:49;24.38;54.29
65584;DHT22;62116;43.582;1.470;2022-07-29T01:29:36;24.31;54.19
65584;DHT22;62116;43.582;1.470;2022-07-29T01:32:14;24.26;53.69
65584;DHT22;62116;43.582;1.470;2022-07-29T01:37:47;24.17;53.32
65584;DHT22;62116;43.582;1.470;2022-07-29T01:40:23;24.14;53.55
65584;DHT22;62116;43.582;1.470;2022-07-29T01:42:52;24.12;53.37
65584;DHT22;62116;43.582;1.470;2022-07-29T01:45:23;24.12;53.06
65584;DHT22;62116;43.582;1.470;2022-07-29T01:48:03;24.12;52.99
65584;DHT22;62116;43.582;1.470;2022-07-29T01:50:33;24.12;53.04
65584;DHT22;62116;43.582;1.470;2022-07-29T01:53:02;24.07;53.49
65584;DHT22;62116;43.582;1.470;2022-07-29T01:55:32;24.04;53.55
65584;DHT22;62116;43.582;1.470;2022-07-29T01:57:59;24.06;53.22
65584;DHT22;62116;43.582;1.470;2022-07-29T02:00:26;24.06;53.35
65584;DHT22;62116;43.582;1.470;2022-07-29T02:02:53;24.07;53.29
65584;DHT22;62116;43.582;1.470;2022-07-29T02:05:20;24.10;53.36
65584;DHT22;62116;43.582;1.470;2022-07-29T02:07:47;24.12;53.33
65584;DHT22;62116;43.582;1.470;2022-07-29T02:10:14;24.09;53.34
65584;DHT22;62116;43.582;1.470;2022-07-29T02:12:42;24.04;53.52
65584;DHT22;62116;43.582;1.470;2022-07-29T02:15:09;23.99;53.61
65584;DHT22;62116;43.582;1.470;2022-07-29T02:17:44;24.00;53.52
65584;DHT22;62116;43.582;1.470;2022-07-29T02:20:12;24.02;53.63
65584;DHT22;62116;43.582;1.470;2022-07-29T02:22:39;23.97;53.98
65584;DHT22;62116;43.582;1.470;2022-07-29T02:25:06;23.97;53.99
65584;DHT22;62116;43.582;1.470;2022-07-29T02:27:33;23.93;53.60
65584;DHT22;62116;43.582;1.470;2022-07-29T02:30:02;23.96;53.59
65584;DHT22;62116;43.582;1.470;2022-07-29T02:32:29;23.96;53.43
65584;DHT22;62116;43.582;1.470;2022-07-29T02:34:56;23.93;53.52
65584;DHT22;62116;43.582;1.470;2022-07-29T02:37:23;23.92;53.78
65584;DHT22;62116;43.582;1.470;2022-07-29T02:39:52;23.92;53.74
65584;DHT22;62116;43.582;1.470;2022-07-29T02:42:21;23.82;54.00
65584;DHT22;62116;43.582;1.470;2022-07-29T02:44:47;23.84;53.92
65584;DHT22;62116;43.582;1.470;2022-07-29T02:47:19;23.90;53.94
65584;DHT22;62116;43.582;1.470;2022-07-29T02:52:28;23.92;53.72
65584;DHT22;62116;43.582;1.470;2022-07-29T02:55:00;23.94;53.72
65584;DHT22;62116;43.582;1.470;2022-07-29T02:57:44;23.92;53.77
65584;DHT22;62116;43.582;1.470;2022-07-29T03:00:12;23.87;53.87
65584;DHT22;62116;43.582;1.470;2022-07-29T03:02:40;23.89;53.84
65584;DHT22;62116;43.582;1.470;2022-07-29T03:05:09;23.89;53.48
65584;DHT22;62116;43.582;1.470;2022-07-29T03:07:36;23.83;53.82
65584;DHT22;62116;43.582;1.470;2022-07-29T03:10:03;23.84;53.68
65584;DHT22;62116;43.582;1.470;2022-07-29T03:12:30;23.79;54.06
65584;DHT22;62116;43.582;1.470;2022-07-29T03:14:56;23.79;54.09
65584;DHT22;62116;43.582;1.470;2022-07-29T03:17:23;23.77;54.01
65584;DHT22;62116;43.582;1.470;2022-07-29T03:19:48;23.77;54.20
65584;DHT22;62116;43.582;1.470;2022-07-29T03:22:14;23.79;54.11
65584;DHT22;62116;43.582;1.470;2022-07-29T03:24:40;23.77;54.08
65584;DHT22;62116;43.582;1.470;2022-07-29T03:27:05;23.79;54.09
65584;DHT22;62116;43.582;1.470;2022-07-29T03:29:31;23.80;54.07
65584;DHT22;62116;43.582;1.470;2022-07-29T03:31:57;23.76;54.17
65584;DHT22;62116;43.582;1.470;2022-07-29T03:34:22;23.76;54.38
65584;DHT22;62116;43.582;1.470;2022-07-29T03:36:48;23.79;54.42
65584;DHT22;62116;43.582;1.470;2022-07-29T03:39:22;23.77;54.69
65584;DHT22;62116;43.582;1.470;2022-07-29T03:41:49;23.80;54.64
65584;DHT22;62116;43.582;1.470;2022-07-29T03:44:17;23.79;54.62
65584;DHT22;62116;43.582;1.470;2022-07-29T03:46:45;23.79;54.66
65584;DHT22;62116;43.582;1.470;2022-07-29T03:49:14;23.73;54.75
65584;DHT22;62116;43.582;1.470;2022-07-29T03:51:40;23.70;55.12
65584;DHT22;62116;43.582;1.470;2022-07-29T03:54:06;23.62;55.04
65584;DHT22;62116;43.582;1.470;2022-07-29T03:56:34;23.62;55.23
65584;DHT22;62116;43.582;1.470;2022-07-29T03:59:01;23.63;55.19
65584;DHT22;62116;43.582;1.470;2022-07-29T04:01:27;23.59;55.27
65584;DHT22;62116;43.582;1.470;2022-07-29T04:03:53;23.59;55.48
65584;DHT22;62116;43.582;1.470;2022-07-29T04:06:19;23.56;55.80
65584;DHT22;62116;43.582;1.470;2022-07-29T04:08:44;23.59;55.73
65584;DHT22;62116;43.582;1.470;2022-07-29T04:11:09;23.58;54.95
65584;DHT22;62116;43.582;1.470;2022-07-29T04:13:35;23.50;54.96
65584;DHT22;62116;43.582;1.470;2022-07-29T04:16:00;23.55;55.08
65584;DHT22;62116;43.582;1.470;2022-07-29T04:18:26;23.58;55.13
65584;DHT22;62116;43.582;1.470;2022-07-29T04:20:51;23.52;56.00
65584;DHT22;62116;43.582;1.470;2022-07-29T04:23:17;23.45;56.96
65584;DHT22;62116;43.582;1.470;2022-07-29T04:25:43;23.42;57.23
65584;DHT22;62116;43.582;1.470;2022-07-29T04:28:09;23.33;57.93
65584;DHT22;62116;43.582;1.470;2022-07-29T04:30:36;23.30;57.97
65584;DHT22;62116;43.582;1.470;2022-07-29T04:33:04;23.22;57.67
65584;DHT22;62116;43.582;1.470;2022-07-29T04:35:30;23.19;57.48
65584;DHT22;62116;43.582;1.470;2022-07-29T04:37:55;23.16;57.57
65584;DHT22;62116;43.582;1.470;2022-07-29T04:40:21;23.09;57.97
65584;DHT22;62116;43.582;1.470;2022-07-29T04:42:46;23.05;59.13
65584;DHT22;62116;43.582;1.470;2022-07-29T04:45:12;22.99;59.60
65584;DHT22;62116;43.582;1.470;2022-07-29T04:47:37;23.05;60.04
65584;DHT22;62116;43.582;1.470;2022-07-29T04:50:03;22.97;60.59
65584;DHT22;62116;43.582;1.470;2022-07-29T04:52:28;22.94;60.86
65584;DHT22;62116;43.582;1.470;2022-07-29T04:54:54;22.94;61.58
65584;DHT22;62116;43.582;1.470;2022-07-29T04:57:19;22.85;62.71
65584;DHT22;62116;43.582;1.470;2022-07-29T04:59:45;22.87;62.63
65584;DHT22;62116;43.582;1.470;2022-07-29T05:02:10;22.84;63.34
65584;DHT22;62116;43.582;1.470;2022-07-29T05:04:35;22.84;62.96
65584;DHT22;62116;43.582;1.470;2022-07-29T05:07:01;22.79;63.48
65584;DHT22;62116;43.582;1.470;2022-07-29T05:09:26;22.74;63.92
65584;DHT22;62116;43.582;1.470;2022-07-29T05:11:52;22.78;63.83
65584;DHT22;62116;43.582;1.470;2022-07-29T05:14:17;22.74;64.12
65584;DHT22;62116;43.582;1.470;2022-07-29T05:16:43;22.74;64.51
65584;DHT22;62116;43.582;1.470;2022-07-29T05:19:11;22.67;64.44
65584;DHT22;62116;43.582;1.470;2022-07-29T05:21:36;22.68;64.32
65584;DHT22;62116;43.582;1.470;2022-07-29T05:24:02;22.67;64.60
65584;DHT22;62116;43.582;1.470;2022-07-29T05:26:27;22.58;65.01
65584;DHT22;62116;43.582;1.470;2022-07-29T05:28:53;22.48;66.08
65584;DHT22;62116;43.582;1.470;2022-07-29T05:31:19;22.37;68.34
65584;DHT22;62116;43.582;1.470;2022-07-29T05:33:44;22.39;68.76
65584;DHT22;62116;43.582;1.470;2022-07-29T05:36:10;22.40;68.80
65584;DHT22;62116;43.582;1.470;2022-07-29T05:38:37;22.34;69.28
65584;DHT22;62116;43.582;1.470;2022-07-29T05:41:03;22.29;69.51
65584;DHT22;62116;43.582;1.470;2022-07-29T05:43:29;22.23;69.24
65584;DHT22;62116;43.582;1.470;2022-07-29T05:45:54;22.18;69.49
65584;DHT22;62116;43.582;1.470;2022-07-29T05:48:20;22.17;69.49
65584;DHT22;62116;43.582;1.470;2022-07-29T05:50:45;22.14;69.61
65584;DHT22;62116;43.582;1.470;2022-07-29T05:53:11;22.07;69.53
65584;DHT22;62116;43.582;1.470;2022-07-29T05:55:36;22.12;70.00
65584;DHT22;62116;43.582;1.470;2022-07-29T05:58:02;22.12;69.49
65584;DHT22;62116;43.582;1.470;2022-07-29T06:00:27;22.10;69.79
65584;DHT22;62116;43.582;1.470;2022-07-29T06:02:53;22.10;70.52
65584;DHT22;62116;43.582;1.470;2022-07-29T06:05:18;21.99;71.62
65584;DHT22;62116;43.582;1.470;2022-07-29T06:07:43;21.97;70.68
65584;DHT22;62116;43.582;1.470;2022-07-29T06:10:09;21.94;70.46
65584;DHT22;62116;43.582;1.470;2022-07-29T06:12:34;21.94;71.10
65584;DHT22;62116;43.582;1.470;2022-07-29T06:15:00;21.96;71.29
65584;DHT22;62116;43.582;1.470;2022-07-29T06:17:25;22.02;72.50
65584;DHT22;62116;43.582;1.470;2022-07-29T06:19:50;22.02;72.68
65584;DHT22;62116;43.582;1.470;2022-07-29T06:22:16;22.10;71.93
65584;DHT22;62116;43.582;1.470;2022-07-29T06:24:42;22.07;73.15
65584;DHT22;62116;43.582;1.470;2022-07-29T06:27:10;22.07;72.70
65584;DHT22;62116;43.582;1.470;2022-07-29T06:29:35;22.06;72.40
65584;DHT22;62116;43.582;1.470;2022-07-29T06:32:01;22.03;72.53
65584;DHT22;62116;43.582;1.470;2022-07-29T06:34:27;22.02;72.11
65584;DHT22;62116;43.582;1.470;2022-07-29T06:36:52;21.94;72.50
65584;DHT22;62116;43.582;1.470;2022-07-29T06:39:18;21.99;72.62
65584;DHT22;62116;43.582;1.470;2022-07-29T06:41:49;22.02;72.06
65584;DHT22;62116;43.582;1.470;2022-07-29T06:44:16;21.99;71.62
65584;DHT22;62116;43.582;1.470;2022-07-29T06:46:41;22.02;71.55
65584;DHT22;62116;43.582;1.470;2022-07-29T06:49:07;22.03;71.89
65584;DHT22;62116;43.582;1.470;2022-07-29T06:51:33;21.96;72.93
65584;DHT22;62116;43.582;1.470;2022-07-29T06:53:58;21.90;72.03
65584;DHT22;62116;43.582;1.470;2022-07-29T06:56:24;21.93;72.36
65584;DHT22;62116;43.582;1.470;2022-07-29T06:58:50;21.94;73.04
65584;DHT22;62116;43.582;1.470;2022-07-29T07:01:15;21.99;72.58
65584;DHT22;62116;43.582;1.470;2022-07-29T07:03:41;21.96;72.17
65584;DHT22;62116;43.582;1.470;2022-07-29T07:06:07;21.92;72.10
65584;DHT22;62116;43.582;1.470;2022-07-29T07:08:33;21.93;72.23
65584;DHT22;62116;43.582;1.470;2022-07-29T07:10:58;22.00;72.14
65584;DHT22;62116;43.582;1.470;2022-07-29T07:13:24;21.97;72.79
65584;DHT22;62116;43.582;1.470;2022-07-29T07:15:50;21.94;72.90
65584;DHT22;62116;43.582;1.470;2022-07-29T07:18:17;21.97;72.50
65584;DHT22;62116;43.582;1.470;2022-07-29T07:20:44;21.99;72.57
65584;DHT22;62116;43.582;1.470;2022-07-29T07:23:10;22.00;72.89
65584;DHT22;62116;43.582;1.470;2022-07-29T07:25:35;21.94;72.11
65584;DHT22;62116;43.582;1.470;2022-07-29T07:28:01;21.93;72.26
65584;DHT22;62116;43.582;1.470;2022-07-29T07:30:27;21.94;72.48
65584;DHT22;62116;43.582;1.470;2022-07-29T07:32:53;21.92;72.54
65584;DHT22;62116;43.582;1.470;2022-07-29T07:35:18;21.96;72.38
65584;DHT22;62116;43.582;1.470;2022-07-29T07:37:44;21.93;72.73
65584;DHT22;62116;43.582;1.470;2022-07-29T07:40:10;21.97;72.11
65584;DHT22;62116;43.582;1.470;2022-07-29T07:42:40;22.03;71.21
65584;DHT22;62116;43.582;1.470;2022-07-29T07:45:07;22.06;71.53
65584;DHT22;62116;43.582;1.470;2022-07-29T07:47:35;22.09;72.34
65584;DHT22;62116;43.582;1.470;2022-07-29T07:50:00;22.12;72.23
65584;DHT22;62116;43.582;1.470;2022-07-29T07:52:26;22.07;72.14
65584;DHT22;62116;43.582;1.470;2022-07-29T07:54:51;22.06;71.80
65584;DHT22;62116;43.582;1.470;2022-07-29T07:57:18;22.13;71.71
65584;DHT22;62116;43.582;1.470;2022-07-29T07:59:43;22.10;72.49
65584;DHT22;62116;43.582;1.470;2022-07-29T08:02:09;22.12;71.80
65584;DHT22;62116;43.582;1.470;2022-07-29T08:04:34;22.12;72.12
65584;DHT22;62116;43.582;1.470;2022-07-29T08:07:00;22.13;71.74
65584;DHT22;62116;43.582;1.470;2022-07-29T08:09:27;22.13;70.78
65584;DHT22;62116;43.582;1.470;2022-07-29T08:11:53;22.12;72.46
65584;DHT22;62116;43.582;1.470;2022-07-29T08:14:19;22.10;71.25
65584;DHT22;62116;43.582;1.470;2022-07-29T08:16:44;22.07;70.96
65584;DHT22;62116;43.582;1.470;2022-07-29T08:19:10;22.09;71.94
65584;DHT22;62116;43.582;1.470;2022-07-29T08:21:36;22.16;71.91
65584;DHT22;62116;43.582;1.470;2022-07-29T08:24:02;22.14;71.37
65584;DHT22;62116;43.582;1.470;2022-07-29T08:26:46;22.16;71.41
65584;DHT22;62116;43.582;1.470;2022-07-29T08:29:12;22.18;71.16
65584;DHT22;62116;43.582;1.470;2022-07-29T08:31:38;22.21;71.79
65584;DHT22;62116;43.582;1.470;2022-07-29T08:34:04;22.18;71.26
65584;DHT22;62116;43.582;1.470;2022-07-29T08:36:30;22.23;70.54
65584;DHT22;62116;43.582;1.470;2022-07-29T08:38:56;22.23;71.09
65584;DHT22;62116;43.582;1.470;2022-07-29T08:41:22;22.23;70.66
65584;DHT22;62116;43.582;1.470;2022-07-29T08:43:49;22.23;69.71
65584;DHT22;62116;43.582;1.470;2022-07-29T08:46:15;22.23;69.68
65584;DHT22;62116;43.582;1.470;2022-07-29T08:48:42;22.23;70.29
65584;DHT22;62116;43.582;1.470;2022-07-29T08:51:13;22.27;70.56
65584;DHT22;62116;43.582;1.470;2022-07-29T08:53:41;22.27;70.87
65584;DHT22;62116;43.582;1.470;2022-07-29T08:56:11;22.32;70.42
65584;DHT22;62116;43.582;1.470;2022-07-29T08:58:36;22.32;69.67
65584;DHT22;62116;43.582;1.470;2022-07-29T09:01:03;22.33;69.58
65584;DHT22;62116;43.582;1.470;2022-07-29T09:03:32;22.32;69.86
65584;DHT22;62116;43.582;1.470;2022-07-29T09:05:59;22.33;69.34
65584;DHT22;62116;43.582;1.470;2022-07-29T09:08:25;22.30;69.20
65584;DHT22;62116;43.582;1.470;2022-07-29T09:10:51;22.36;69.65
65584;DHT22;62116;43.582;1.470;2022-07-29T09:13:17;22.37;70.34
65584;DHT22;62116;43.582;1.470;2022-07-29T09:15:43;22.39;70.02
65584;DHT22;62116;43.582;1.470;2022-07-29T09:18:09;22.40;70.24
65584;DHT22;62116;43.582;1.470;2022-07-29T09:20:34;22.43;69.88
65584;DHT22;62116;43.582;1.470;2022-07-29T09:23:18;22.41;69.36
65584;DHT22;62116;43.582;1.470;2022-07-29T09:25:44;22.45;70.29
65584;DHT22;62116;43.582;1.470;2022-07-29T09:28:14;22.48;70.16
65584;DHT22;62116;43.582;1.470;2022-07-29T09:30:55;22.55;69.49
65584;DHT22;62116;43.582;1.470;2022-07-29T09:33:23;22.54;69.72
65584;DHT22;62116;43.582;1.470;2022-07-29T09:36:06;22.53;68.68
65584;DHT22;62116;43.582;1.470;2022-07-29T09:38:33;22.54;69.03
65584;DHT22;62116;43.582;1.470;2022-07-29T09:41:00;22.60;69.47
65584;DHT22;62116;43.582;1.470;2022-07-29T09:43:27;22.65;70.13
65584;DHT22;62116;43.582;1.470;2022-07-29T09:45:52;22.72;69.83
65584;DHT22;62116;43.582;1.470;2022-07-29T09:48:24;22.78;70.10
65584;DHT22;62116;43.582;1.470;2022-07-29T09:50:50;22.85;69.74
65584;DHT22;62116;43.582;1.470;2022-07-29T09:55:58;22.95;68.47
65584;DHT22;62116;43.582;1.470;2022-07-29T09:58:23;23.04;68.24
65584;DHT22;62116;43.582;1.470;2022-07-29T10:00:50;23.25;68.97
65584;DHT22;62116;43.582;1.470;2022-07-29T10:03:16;23.42;68.53
65584;DHT22;62116;43.582;1.470;2022-07-29T10:05:43;23.56;67.34
65584;DHT22;62116;43.582;1.470;2022-07-29T10:08:10;23.67;65.97
65584;DHT22;62116;43.582;1.470;2022-07-29T10:10:41;23.82;65.57
65584;DHT22;62116;43.582;1.470;2022-07-29T10:13:09;23.94;65.70
65584;DHT22;62116;43.582;1.470;2022-07-29T10:15:37;23.97;63.42
65584;DHT22;62116;43.582;1.470;2022-07-29T10:18:05;24.00;63.70
65584;DHT22;62116;43.582;1.470;2022-07-29T10:20:31;24.10;63.75
65584;DHT22;62116;43.582;1.470;2022-07-29T10:22:57;24.20;63.26
65584;DHT22;62116;43.582;1.470;2022-07-29T10:25:23;24.27;63.28
65584;DHT22;62116;43.582;1.470;2022-07-29T10:27:49;24.28;60.43
65584;DHT22;62116;43.582;1.470;2022-07-29T10:30:17;24.34;60.99
65584;DHT22;62116;43.582;1.470;2022-07-29T10:44:21;24.68;58.66
65584;DHT22;62116;43.582;1.470;2022-07-29T10:46:48;24.81;58.50
65584;DHT22;62116;43.582;1.470;2022-07-29T10:49:24;24.78;59.31
65584;DHT22;62116;43.582;1.470;2022-07-29T10:59:42;24.94;57.15
65584;DHT22;62116;43.582;1.470;2022-07-29T11:07:25;25.11;57.85
65584;DHT22;62116;43.582;1.470;2022-07-29T11:15:10;25.28;56.53
65584;DHT22;62116;43.582;1.470;2022-07-29T11:20:44;25.29;56.66
65584;DHT22;62116;43.582;1.470;2022-07-29T11:23:23;25.32;56.67
65584;DHT22;62116;43.582;1.470;2022-07-29T11:29:04;25.35;55.35
65584;DHT22;62116;43.582;1.470;2022-07-29T11:31:43;25.39;55.88
65584;DHT22;62116;43.582;1.470;2022-07-29T11:34:30;25.36;56.23
65584;DHT22;62116;43.582;1.470;2022-07-29T11:45:01;25.42;57.10
65584;DHT22;62116;43.582;1.470;2022-07-29T11:47:28;25.42;57.07
65584;DHT22;62116;43.582;1.470;2022-07-29T11:49:56;25.46;57.04
65584;DHT22;62116;43.582;1.470;2022-07-29T11:52:34;25.50;57.21
65584;DHT22;62116;43.582;1.470;2022-07-29T11:55:04;25.49;57.62
65584;DHT22;62116;43.582;1.470;2022-07-29T11:57:30;25.45;57.09
65584;DHT22;62116;43.582;1.470;2022-07-29T11:59:57;25.45;56.96
65584;DHT22;62116;43.582;1.470;2022-07-29T12:02:23;25.42;56.16
65584;DHT22;62116;43.582;1.470;2022-07-29T12:04:53;25.38;54.95
65584;DHT22;62116;43.582;1.470;2022-07-29T12:07:27;25.38;54.89
65584;DHT22;62116;43.582;1.470;2022-07-29T12:09:53;25.35;54.48
65584;DHT22;62116;43.582;1.470;2022-07-29T12:12:18;25.26;52.98
65584;DHT22;62116;43.582;1.470;2022-07-29T12:14:44;25.22;52.69
65584;DHT22;62116;43.582;1.470;2022-07-29T12:17:31;25.23;53.08
65584;DHT22;62116;43.582;1.470;2022-07-29T12:19:58;25.28;53.80
65584;DHT22;62116;43.582;1.470;2022-07-29T12:24:54;25.35;53.51
65584;DHT22;62116;43.582;1.470;2022-07-29T12:27:20;25.39;53.66
65584;DHT22;62116;43.582;1.470;2022-07-29T12:29:59;25.41;53.52
65584;DHT22;62116;43.582;1.470;2022-07-29T12:32:37;25.42;53.02
65584;DHT22;62116;43.582;1.470;2022-07-29T12:37:33;25.41;52.89
65584;DHT22;62116;43.582;1.470;2022-07-29T12:40:01;25.43;54.02
65584;DHT22;62116;43.582;1.470;2022-07-29T12:42:27;25.46;54.06
65584;DHT22;62116;43.582;1.470;2022-07-29T12:44:52;25.49;54.22
65584;DHT22;62116;43.582;1.470;2022-07-29T12:47:19;25.50;54.01
65584;DHT22;62116;43.582;1.470;2022-07-29T12:49:45;25.55;54.43
65584;DHT22;62116;43.582;1.470;2022-07-29T12:52:28;25.56;53.63
65584;DHT22;62116;43.582;1.470;2022-07-29T12:54:54;25.59;53.45
65584;DHT22;62116;43.582;1.470;2022-07-29T12:57:20;25.63;53.32
65584;DHT22;62116;43.582;1.470;2022-07-29T13:00:07;25.66;53.66
65584;DHT22;62116;43.582;1.470;2022-07-29T13:02:35;25.66;53.85
65584;DHT22;62116;43.582;1.470;2022-07-29T13:05:01;25.62;54.09
65584;DHT22;62116;43.582;1.470;2022-07-29T13:07:29;25.62;54.57
65584;DHT22;62116;43.582;1.470;2022-07-29T13:10:10;25.59;54.44
65584;DHT22;62116;43.582;1.470;2022-07-29T13:12:37;25.59;54.47
65584;DHT22;62116;43.582;1.470;2022-07-29T13:15:15;25.62;54.73
65584;DHT22;62116;43.582;1.470;2022-07-29T13:17:42;25.65;55.11
65584;DHT22;62116;43.582;1.470;2022-07-29T13:20:12;25.67;54.73
65584;DHT22;62116;43.582;1.470;2022-07-29T13:22:38;25.62;55.50
65584;DHT22;62116;43.582;1.470;2022-07-29T13:25:05;25.61;54.87
65584;DHT22;62116;43.582;1.470;2022-07-29T13:27:35;25.62;54.84
65584;DHT22;62116;43.582;1.470;2022-07-29T13:30:04;25.58;55.74
65584;DHT22;62116;43.582;1.470;2022-07-29T13:32:31;25.56;55.16
65584;DHT22;62116;43.582;1.470;2022-07-29T13:34:59;25.58;54.93
65584;DHT22;62116;43.582;1.470;2022-07-29T13:37:25;25.55;55.37
65584;DHT22;62116;43.582;1.470;2022-07-29T13:39:51;25.56;55.06
65584;DHT22;62116;43.582;1.470;2022-07-29T13:42:18;25.58;55.17
65584;DHT22;62116;43.582;1.470;2022-07-29T13:44:44;25.56;55.95
65584;DHT22;62116;43.582;1.470;2022-07-29T13:47:09;25.58;55.84
65584;DHT22;62116;43.582;1.470;2022-07-29T13:49:35;25.62;56.19
65584;DHT22;62116;43.582;1.470;2022-07-29T13:52:00;25.61;56.76
65584;DHT22;62116;43.582;1.470;2022-07-29T13:54:26;25.61;56.59
65584;DHT22;62116;43.582;1.470;2022-07-29T13:56:51;25.62;55.72
65584;DHT22;62116;43.582;1.470;2022-07-29T13:59:17;25.62;54.96
65584;DHT22;62116;43.582;1.470;2022-07-29T14:01:42;25.63;54.30
65584;DHT22;62116;43.582;1.470;2022-07-29T14:04:10;25.59;54.01
65584;DHT22;62116;43.582;1.470;2022-07-29T14:06:35;25.53;54.12
65584;DHT22;62116;43.582;1.470;2022-07-29T14:09:02;25.53;54.58
65584;DHT22;62116;43.582;1.470;2022-07-29T14:11:31;25.49;54.91
65584;DHT22;62116;43.582;1.470;2022-07-29T14:13:56;25.50;55.22
65584;DHT22;62116;43.582;1.470;2022-07-29T14:16:22;25.47;56.33
65584;DHT22;62116;43.582;1.470;2022-07-29T14:18:47;25.52;56.55
65584;DHT22;62116;43.582;1.470;2022-07-29T14:21:13;25.50;57.56
65584;DHT22;62116;43.582;1.470;2022-07-29T14:23:38;25.55;57.88
65584;DHT22;62116;43.582;1.470;2022-07-29T14:26:03;25.58;57.98
65584;DHT22;62116;43.582;1.470;2022-07-29T14:28:29;25.62;58.14
65584;DHT22;62116;43.582;1.470;2022-07-29T14:30:54;25.62;57.64
65584;DHT22;62116;43.582;1.470;2022-07-29T14:33:20;25.62;57.89
65584;DHT22;62116;43.582;1.470;2022-07-29T14:35:45;25.62;57.83
65584;DHT22;62116;43.582;1.470;2022-07-29T14:38:11;25.59;57.70
65584;DHT22;62116;43.582;1.470;2022-07-29T14:40:37;25.59;57.56
65584;DHT22;62116;43.582;1.470;2022-07-29T14:43:03;25.59;57.43
65584;DHT22;62116;43.582;1.470;2022-07-29T14:45:28;25.65;57.00
65584;DHT22;62116;43.582;1.470;2022-07-29T14:47:54;25.69;56.81
65584;DHT22;62116;43.582;1.470;2022-07-29T14:50:19;25.72;57.24
65584;DHT22;62116;43.582;1.470;2022-07-29T14:52:45;25.76;56.69
65584;DHT22;62116;43.582;1.470;2022-07-29T14:55:11;25.79;56.50
65584;DHT22;62116;43.582;1.470;2022-07-29T14:57:37;25.82;56.65
65584;DHT22;62116;43.582;1.470;2022-07-29T15:00:04;25.80;56.17
65584;DHT22;62116;43.582;1.470;2022-07-29T15:02:31;25.82;56.09
65584;DHT22;62116;43.582;1.470;2022-07-29T15:04:56;25.79;55.90
65584;DHT22;62116;43.582;1.470;2022-07-29T15:07:21;25.76;55.46
65584;DHT22;62116;43.582;1.470;2022-07-29T15:09:47;25.76;55.88
65584;DHT22;62116;43.582;1.470;2022-07-29T15:12:13;25.76;55.82
65584;DHT22;62116;43.582;1.470;2022-07-29T15:14:38;25.73;55.69
65584;DHT22;62116;43.582;1.470;2022-07-29T15:17:03;25.76;55.41
65584;DHT22;62116;43.582;1.470;2022-07-29T15:19:29;25.76;55.92
65584;DHT22;62116;43.582;1.470;2022-07-29T15:21:54;25.76;56.12
65584;DHT22;62116;43.582;1.470;2022-07-29T15:24:20;25.79;55.60
65584;DHT22;62116;43.582;1.470;2022-07-29T15:26:46;25.79;55.70
65584;DHT22;62116;43.582;1.470;2022-07-29T15:29:12;25.82;55.65
65584;DHT22;62116;43.582;1.470;2022-07-29T15:31:37;25.86;55.78
65584;DHT22;62116;43.582;1.470;2022-07-29T15:34:02;25.89;55.74
65584;DHT22;62116;43.582;1.470;2022-07-29T15:36:28;25.86;55.45
65584;DHT22;62116;43.582;1.470;2022-07-29T15:38:53;25.90;54.82
65584;DHT22;62116;43.582;1.470;2022-07-29T15:41:19;25.86;55.31
65584;DHT22;62116;43.582;1.470;2022-07-29T15:43:45;25.89;55.40
65584;DHT22;62116;43.582;1.470;2022-07-29T15:46:15;25.87;55.29
65584;DHT22;62116;43.582;1.470;2022-07-29T15:48:59;25.89;55.24
65584;DHT22;62116;43.582;1.470;2022-07-29T15:51:24;25.93;54.98
65584;DHT22;62116;43.582;1.470;2022-07-29T15:53:50;25.94;54.74
65584;DHT22;62116;43.582;1.470;2022-07-29T15:56:16;25.92;54.70
65584;DHT22;62116;43.582;1.470;2022-07-29T15:58:42;25.93;54.73
65584;DHT22;62116;43.582;1.470;2022-07-29T16:01:07;25.90;54.48
65584;DHT22;62116;43.582;1.470;2022-07-29T16:03:33;25.92;54.62
65584;DHT22;62116;43.582;1.470;2022-07-29T16:05:58;25.93;54.70
65584;DHT22;62116;43.582;1.470;2022-07-29T16:08:23;25.97;54.49
65584;DHT22;62116;43.582;1.470;2022-07-29T16:10:52;25.94;54.32
65584;DHT22;62116;43.582;1.470;2022-07-29T16:13:17;25.97;54.39
65584;DHT22;62116;43.582;1.470;2022-07-29T16:15:43;26.00;54.45
65584;DHT22;62116;43.582;1.470;2022-07-29T16:18:09;26.01;54.50
65584;DHT22;62116;43.582;1.470;2022-07-29T16:20:35;26.01;54.50
65584;DHT22;62116;43.582;1.470;2022-07-29T16:23:01;26.03;54.21
65584;DHT22;62116;43.582;1.470;2022-07-29T16:25:26;26.00;54.23
65584;DHT22;62116;43.582;1.470;2022-07-29T16:27:52;26.04;54.24
65584;DHT22;62116;43.582;1.470;2022-07-29T16:30:17;26.01;54.35